sensor_id;sensor_type;location;lat;lon;timestamp;temperature;humidity
54518;DHT22;40423;53.176;6.002;2022-12-11T00:01:17;0.80;99.90
54518;DHT22;40423;53.176;6.002;2022-12-11T00:03:43;0.80;99.90
54518;DHT22;40423;53.176;6.002;2022-12-11T00:06:12;0.80;99.90
54518;DHT22;40423;53.176;6.002;2022-12-11T00:08:38;0.80;99.90
54518;DHT22;40423;53.176;6.002;2022-12-11T00:11:04;0.80;99.90
54518;DHT22;40423;53.176;6.002;2022-12-11T00:13:30;0.80;99.90
54518;DHT22;40423;53.176;6.002;2022-12-11T00:15:57;0.80;99.90
54518;DHT22;40423;53.176;6.002;2022-12-11T00:18:23;0.80;99.90
54518;DHT22;40423;53.176;6.002;2022-12-11T00:20:49;0.80;99.90
54518;DHT22;40423;53.176;6.002;2022-12-11T00:23:15;0.90;99.90
54518;DHT22;40423;53.176;6.002;2022-12-11T00:25:41;0.90;99.90
54518;DHT22;40423;53.176;6.002;2022-12-11T00:28:08;0.90;99.90
54518;DHT22;40423;53.176;6.002;2022-12-11T00:30:40;0.90;99.90
54518;DHT22;40423;53.176;6.002;2022-12-11T00:33:07;0.90;99.90
54518;DHT22;40423;53.176;6.002;2022-12-11T00:35:33;0.90;99.90
54518;DHT22;40423;53.176;6.002;2022-12-11T00:37:58;0.90;99.90
54518;DHT22;40423;53.176;6.002;2022-12-11T00:40:24;0.90;99.90
54518;DHT22;40423;53.176;6.002;2022-12-11T00:42:50;0.90;99.90
54518;DHT22;40423;53.176;6.002;2022-12-11T00:45:15;1.00;99.90
54518;DHT22;40423;53.176;6.002;2022-12-11T00:47:41;0.90;99.90
54518;DHT22;40423;53.176;6.002;2022-12-11T00:50:07;0.90;99.90
54518;DHT22;40423;53.176;6.002;2022-12-11T00:52:33;1.00;99.90
54518;DHT22;40423;53.176;6.002;2022-12-11T00:54:59;1.00;99.90
54518;DHT22;40423;53.176;6.002;2022-12-11T00:57:25;1.00;99.90
54518;DHT22;40423;53.176;6.002;2022-12-11T00:59:51;1.00;99.90
54518;DHT22;40423;53.176;6.002;2022-12-11T01:02:16;1.00;99.90
54518;DHT22;40423;53.176;6.002;2022-12-11T01:04:42;1.00;99.90
54518;DHT22;40423;53.176;6.002;2022-12-11T01:07:08;1.00;99.90
54518;DHT22;40423;53.176;6.002;2022-12-11T01:09:33;1.00;99.90
54518;DHT22;40423;53.176;6.002;2022-12-11T01:12:17;1.00;99.90
54518;DHT22;40423;53.176;6.002;2022-12-11T01:14:43;1.00;99.90
54518;DHT22;40423;53.176;6.002;2022-12-11T01:17:09;1.00;99.90
54518;DHT22;40423;53.176;6.002;2022-12-11T01:19:34;1.00;99.90
54518;DHT22;40423;53.176;6.002;2022-12-11T01:22:00;1.00;99.90
54518;DHT22;40423;53.176;6.002;2022-12-11T01:24:26;1.00;99.90
54518;DHT22;40423;53.176;6.002;2022-12-11T01:26:51;1.10;99.90
54518;DHT22;40423;53.176;6.002;2022-12-11T01:29:17;1.00;99.90
54518;DHT22;40423;53.176;6.002;2022-12-11T01:31:43;1.00;99.90
54518;DHT22;40423;53.176;6.002;2022-12-11T01:34:08;1.00;99.90
54518;DHT22;40423;53.176;6.002;2022-12-11T01:36:34;1.10;99.90
54518;DHT22;40423;53.176;6.002;2022-12-11T01:39:00;1.00;99.90
54518;DHT22;40423;53.176;6.002;2022-12-11T01:41:26;1.10;99.90
54518;DHT22;40423;53.176;6.002;2022-12-11T01:46:52;1.10;99.90
54518;DHT22;40423;53.176;6.002;2022-12-11T01:49:20;1.10;99.90
54518;DHT22;40423;53.176;6.002;2022-12-11T01:52:15;1.10;99.90
54518;DHT22;40423;53.176;6.002;2022-12-11T01:54:44;1.10;99.90
54518;DHT22;40423;53.176;6.002;2022-12-11T01:57:11;1.10;99.90
54518;DHT22;40423;53.176;6.002;2022-12-11T01:59:39;1.10;99.90
54518;DHT22;40423;53.176;6.002;2022-12-11T02:02:09;1.10;99.90
54518;DHT22;40423;53.176;6.002;2022-12-11T02:04:38;1.20;99.90
54518;DHT22;40423;53.176;6.002;2022-12-11T02:07:04;1.20;99.90
54518;DHT22;40423;53.176;6.002;2022-12-11T02:09:32;1.20;99.90
54518;DHT22;40423;53.176;6.002;2022-12-11T02:15:11;1.20;99.90
54518;DHT22;40423;53.176;6.002;2022-12-11T02:17:43;1.20;99.90
54518;DHT22;40423;53.176;6.002;2022-12-11T02:20:26;1.20;99.90
54518;DHT22;40423;53.176;6.002;2022-12-11T02:28:21;1.20;99.90
54518;DHT22;40423;53.176;6.002;2022-12-11T02:30:50;1.30;99.90
54518;DHT22;40423;53.176;6.002;2022-12-11T02:33:22;1.20;99.90
54518;DHT22;40423;53.176;6.002;2022-12-11T02:35:49;1.30;99.90
54518;DHT22;40423;53.176;6.002;2022-12-11T02:38:28;1.30;99.90
54518;DHT22;40423;53.176;6.002;2022-12-11T02:40:57;1.30;99.90
54518;DHT22;40423;53.176;6.002;2022-12-11T02:43:24;1.30;99.90
54518;DHT22;40423;53.176;6.002;2022-12-11T02:45:50;1.30;99.90
54518;DHT22;40423;53.176;6.002;2022-12-11T02:48:18;1.30;99.90
54518;DHT22;40423;53.176;6.002;2022-12-11T02:50:47;1.30;99.90
54518;DHT22;40423;53.176;6.002;2022-12-11T02:53:18;1.30;99.90
54518;DHT22;40423;53.176;6.002;2022-12-11T02:55:44;1.40;99.90
54518;DHT22;40423;53.176;6.002;2022-12-11T02:58:18;1.40;99.90
54518;DHT22;40423;53.176;6.002;2022-12-11T03:00:46;1.40;99.90
54518;DHT22;40423;53.176;6.002;2022-12-11T03:03:12;1.30;99.90
54518;DHT22;40423;53.176;6.002;2022-12-11T03:05:39;1.40;99.90
54518;DHT22;40423;53.176;6.002;2022-12-11T03:08:05;1.40;99.90
54518;DHT22;40423;53.176;6.002;2022-12-11T03:10:31;1.40;99.90
54518;DHT22;40423;53.176;6.002;2022-12-11T03:12:58;1.40;99.90
54518;DHT22;40423;53.176;6.002;2022-12-11T03:15:36;1.40;99.90
54518;DHT22;40423;53.176;6.002;2022-12-11T03:18:16;1.50;99.90
54518;DHT22;40423;53.176;6.002;2022-12-11T03:20:46;1.40;99.90
54518;DHT22;40423;53.176;6.002;2022-12-11T03:28:22;1.40;99.90
54518;DHT22;40423;53.176;6.002;2022-12-11T03:30:52;1.40;99.90
54518;DHT22;40423;53.176;6.002;2022-12-11T03:33:39;1.40;99.90
54518;DHT22;40423;53.176;6.002;2022-12-11T03:36:09;1.40;99.90
54518;DHT22;40423;53.176;6.002;2022-12-11T03:38:45;1.40;99.90
54518;DHT22;40423;53.176;6.002;2022-12-11T03:41:14;1.40;99.90
54518;DHT22;40423;53.176;6.002;2022-12-11T03:43:40;1.40;99.90
54518;DHT22;40423;53.176;6.002;2022-12-11T03:46:08;1.40;99.90
54518;DHT22;40423;53.176;6.002;2022-12-11T03:48:36;1.40;99.90
54518;DHT22;40423;53.176;6.002;2022-12-11T03:51:06;1.40;99.90
54518;DHT22;40423;53.176;6.002;2022-12-11T03:53:34;1.40;99.90
54518;DHT22;40423;53.176;6.002;2022-12-11T03:56:02;1.40;99.90
54518;DHT22;40423;53.176;6.002;2022-12-11T03:58:29;1.40;99.90
54518;DHT22;40423;53.176;6.002;2022-12-11T04:00:55;1.40;99.90
54518;DHT22;40423;53.176;6.002;2022-12-11T04:03:20;1.40;99.90
54518;DHT22;40423;53.176;6.002;2022-12-11T04:05:49;1.50;99.90
54518;DHT22;40423;53.176;6.002;2022-12-11T04:08:16;1.40;99.90
54518;DHT22;40423;53.176;6.002;2022-12-11T04:10:41;1.40;99.90
54518;DHT22;40423;53.176;6.002;2022-12-11T04:13:08;1.40;99.90
54518;DHT22;40423;53.176;6.002;2022-12-11T04:15:35;1.40;99.90
54518;DHT22;40423;53.176;6.002;2022-12-11T04:18:01;1.40;99.90
54518;DHT22;40423;53.176;6.002;2022-12-11T04:20:45;1.40;99.90
54518;DHT22;40423;53.176;6.002;2022-12-11T04:23:30;1.40;99.90
54518;DHT22;40423;53.176;6.002;2022-12-11T04:26:19;1.40;99.90
54518;DHT22;40423;53.176;6.002;2022-12-11T04:28:46;1.40;99.90
54518;DHT22;40423;53.176;6.002;2022-12-11T04:31:18;1.40;99.90
54518;DHT22;40423;53.176;6.002;2022-12-11T04:33:45;1.40;99.90
54518;DHT22;40423;53.176;6.002;2022-12-11T04:36:10;1.40;99.90
54518;DHT22;40423;53.176;6.002;2022-12-11T04:38:36;1.40;99.90
54518;DHT22;40423;53.176;6.002;2022-12-11T04:41:05;1.40;99.90
54518;DHT22;40423;53.176;6.002;2022-12-11T04:43:31;1.40;99.90
54518;DHT22;40423;53.176;6.002;2022-12-11T04:46:06;1.40;99.90
54518;DHT22;40423;53.176;6.002;2022-12-11T04:48:32;1.40;99.90
54518;DHT22;40423;53.176;6.002;2022-12-11T04:50:58;1.50;99.90
54518;DHT22;40423;53.176;6.002;2022-12-11T04:53:24;1.40;99.90
54518;DHT22;40423;53.176;6.002;2022-12-11T04:55:50;1.40;99.90
54518;DHT22;40423;53.176;6.002;2022-12-11T04:58:16;1.50;99.90
54518;DHT22;40423;53.176;6.002;2022-12-11T05:00:41;1.40;99.90
54518;DHT22;40423;53.176;6.002;2022-12-11T05:03:08;1.50;99.90
54518;DHT22;40423;53.176;6.002;2022-12-11T05:05:33;1.40;99.90
54518;DHT22;40423;53.176;6.002;2022-12-11T05:07:59;1.50;99.90
54518;DHT22;40423;53.176;6.002;2022-12-11T05:10:25;1.50;99.90
54518;DHT22;40423;53.176;6.002;2022-12-11T05:12:51;1.40;99.90
54518;DHT22;40423;53.176;6.002;2022-12-11T05:15:16;1.40;99.90
54518;DHT22;40423;53.176;6.002;2022-12-11T05:17:42;1.40;99.90
54518;DHT22;40423;53.176;6.002;2022-12-11T05:20:08;1.40;99.90
54518;DHT22;40423;53.176;6.002;2022-12-11T05:22:35;1.40;99.90
54518;DHT22;40423;53.176;6.002;2022-12-11T05:25:01;1.40;99.90
54518;DHT22;40423;53.176;6.002;2022-12-11T05:27:27;1.50;99.90
54518;DHT22;40423;53.176;6.002;2022-12-11T05:29:53;1.50;99.90
54518;DHT22;40423;53.176;6.002;2022-12-11T05:32:19;1.50;99.90
54518;DHT22;40423;53.176;6.002;2022-12-11T05:34:44;1.50;99.90
54518;DHT22;40423;53.176;6.002;2022-12-11T05:37:10;1.40;99.90
54518;DHT22;40423;53.176;6.002;2022-12-11T05:39:36;1.40;99.90
54518;DHT22;40423;53.176;6.002;2022-12-11T05:42:02;1.50;99.90
54518;DHT22;40423;53.176;6.002;2022-12-11T05:44:28;1.40;99.90
54518;DHT22;40423;53.176;6.002;2022-12-11T05:46:53;1.50;99.90
54518;DHT22;40423;53.176;6.002;2022-12-11T05:49:19;1.50;99.90
54518;DHT22;40423;53.176;6.002;2022-12-11T05:51:45;1.50;99.90
54518;DHT22;40423;53.176;6.002;2022-12-11T05:54:12;1.60;99.90
54518;DHT22;40423;53.176;6.002;2022-12-11T05:56:38;1.50;99.90
54518;DHT22;40423;53.176;6.002;2022-12-11T05:59:05;1.50;99.90
54518;DHT22;40423;53.176;6.002;2022-12-11T06:01:41;1.50;99.90
54518;DHT22;40423;53.176;6.002;2022-12-11T06:04:08;1.50;99.90
54518;DHT22;40423;53.176;6.002;2022-12-11T06:06:35;1.50;99.90
54518;DHT22;40423;53.176;6.002;2022-12-11T06:09:03;1.50;99.90
54518;DHT22;40423;53.176;6.002;2022-12-11T06:11:30;1.50;99.90
54518;DHT22;40423;53.176;6.002;2022-12-11T06:13:56;1.50;99.90
54518;DHT22;40423;53.176;6.002;2022-12-11T06:16:22;1.60;99.90
54518;DHT22;40423;53.176;6.002;2022-12-11T06:18:49;1.60;99.90
54518;DHT22;40423;53.176;6.002;2022-12-11T06:21:21;1.50;99.90
54518;DHT22;40423;53.176;6.002;2022-12-11T06:23:48;1.50;99.90
54518;DHT22;40423;53.176;6.002;2022-12-11T06:26:15;1.50;99.90
54518;DHT22;40423;53.176;6.002;2022-12-11T06:28:41;1.50;99.90
54518;DHT22;40423;53.176;6.002;2022-12-11T06:31:08;1.50;99.90
54518;DHT22;40423;53.176;6.002;2022-12-11T06:33:34;1.50;99.90
54518;DHT22;40423;53.176;6.002;2022-12-11T06:36:01;1.60;99.90
54518;DHT22;40423;53.176;6.002;2022-12-11T06:38:27;1.50;99.90
54518;DHT22;40423;53.176;6.002;2022-12-11T06:40:54;1.50;99.90
54518;DHT22;40423;53.176;6.002;2022-12-11T06:43:21;1.50;99.90
54518;DHT22;40423;53.176;6.002;2022-12-11T06:45:46;1.60;99.90
54518;DHT22;40423;53.176;6.002;2022-12-11T06:48:12;1.60;99.90
54518;DHT22;40423;53.176;6.002;2022-12-11T06:50:38;1.50;99.90
54518;DHT22;40423;53.176;6.002;2022-12-11T06:53:04;1.50;99.90
54518;DHT22;40423;53.176;6.002;2022-12-11T06:55:29;1.60;99.90
54518;DHT22;40423;53.176;6.002;2022-12-11T06:57:55;1.60;99.90
54518;DHT22;40423;53.176;6.002;2022-12-11T07:00:21;1.60;99.90
54518;DHT22;40423;53.176;6.002;2022-12-11T07:02:46;1.60;99.90
54518;DHT22;40423;53.176;6.002;2022-12-11T07:05:14;1.60;99.90
54518;DHT22;40423;53.176;6.002;2022-12-11T07:07:40;1.60;99.90
54518;DHT22;40423;53.176;6.002;2022-12-11T07:10:06;1.60;99.90
54518;DHT22;40423;53.176;6.002;2022-12-11T07:12:32;1.60;99.90
54518;DHT22;40423;53.176;6.002;2022-12-11T07:14:58;1.60;99.90
54518;DHT22;40423;53.176;6.002;2022-12-11T07:17:23;1.60;99.90
54518;DHT22;40423;53.176;6.002;2022-12-11T07:19:49;1.70;99.90
54518;DHT22;40423;53.176;6.002;2022-12-11T07:22:14;1.50;99.90
54518;DHT22;40423;53.176;6.002;2022-12-11T07:24:40;1.60;99.90
54518;DHT22;40423;53.176;6.002;2022-12-11T07:27:06;1.60;99.90
54518;DHT22;40423;53.176;6.002;2022-12-11T07:29:32;1.60;99.90
54518;DHT22;40423;53.176;6.002;2022-12-11T07:31:57;1.50;99.90
54518;DHT22;40423;53.176;6.002;2022-12-11T07:34:23;1.60;99.90
54518;DHT22;40423;53.176;6.002;2022-12-11T07:36:49;1.60;99.90
54518;DHT22;40423;53.176;6.002;2022-12-11T07:39:14;1.60;99.90
54518;DHT22;40423;53.176;6.002;2022-12-11T07:41:40;1.60;99.90
54518;DHT22;40423;53.176;6.002;2022-12-11T07:44:06;1.60;99.90
54518;DHT22;40423;53.176;6.002;2022-12-11T07:46:33;1.60;99.90
54518;DHT22;40423;53.176;6.002;2022-12-11T07:48:59;1.60;99.90
54518;DHT22;40423;53.176;6.002;2022-12-11T07:51:30;1.50;99.90
54518;DHT22;40423;53.176;6.002;2022-12-11T07:54:07;1.60;99.90
54518;DHT22;40423;53.176;6.002;2022-12-11T07:56:36;1.60;99.90
54518;DHT22;40423;53.176;6.002;2022-12-11T07:59:03;1.60;99.90
54518;DHT22;40423;53.176;6.002;2022-12-11T08:01:31;1.60;99.90
54518;DHT22;40423;53.176;6.002;2022-12-11T08:03:57;1.60;99.90
54518;DHT22;40423;53.176;6.002;2022-12-11T08:06:26;1.60;99.90
54518;DHT22;40423;53.176;6.002;2022-12-11T08:08:53;1.60;99.90
54518;DHT22;40423;53.176;6.002;2022-12-11T08:11:18;1.60;99.90
54518;DHT22;40423;53.176;6.002;2022-12-11T08:13:44;1.60;99.90
54518;DHT22;40423;53.176;6.002;2022-12-11T08:16:12;1.60;99.90
54518;DHT22;40423;53.176;6.002;2022-12-11T08:18:39;1.60;99.90
54518;DHT22;40423;53.176;6.002;2022-12-11T08:21:06;1.70;99.90
54518;DHT22;40423;53.176;6.002;2022-12-11T08:23:32;1.60;99.90
54518;DHT22;40423;53.176;6.002;2022-12-11T08:26:01;1.70;99.90
54518;DHT22;40423;53.176;6.002;2022-12-11T08:28:28;1.60;99.90
54518;DHT22;40423;53.176;6.002;2022-12-11T08:30:53;1.60;99.90
54518;DHT22;40423;53.176;6.002;2022-12-11T08:33:19;1.60;99.90
54518;DHT22;40423;53.176;6.002;2022-12-11T08:35:44;1.60;99.90
54518;DHT22;40423;53.176;6.002;2022-12-11T08:38:11;1.70;99.90
54518;DHT22;40423;53.176;6.002;2022-12-11T08:40:36;1.70;99.90
54518;DHT22;40423;53.176;6.002;2022-12-11T08:43:02;1.70;99.90
54518;DHT22;40423;53.176;6.002;2022-12-11T08:45:28;1.70;99.90
54518;DHT22;40423;53.176;6.002;2022-12-11T08:47:54;1.70;99.90
54518;DHT22;40423;53.176;6.002;2022-12-11T08:50:20;1.70;99.90
54518;DHT22;40423;53.176;6.002;2022-12-11T08:52:45;1.70;99.90
54518;DHT22;40423;53.176;6.002;2022-12-11T08:55:11;1.70;99.90
54518;DHT22;40423;53.176;6.002;2022-12-11T08:57:37;1.70;99.90
54518;DHT22;40423;53.176;6.002;2022-12-11T09:00:07;1.70;99.90
54518;DHT22;40423;53.176;6.002;2022-12-11T09:02:34;1.70;99.90
54518;DHT22;40423;53.176;6.002;2022-12-11T09:05:00;1.70;99.90
54518;DHT22;40423;53.176;6.002;2022-12-11T09:07:28;1.80;99.90
54518;DHT22;40423;53.176;6.002;2022-12-11T09:09:54;1.70;99.90
54518;DHT22;40423;53.176;6.002;2022-12-11T09:12:20;1.80;99.90
54518;DHT22;40423;53.176;6.002;2022-12-11T09:14:46;1.80;99.90
54518;DHT22;40423;53.176;6.002;2022-12-11T09:17:12;1.80;99.90
54518;DHT22;40423;53.176;6.002;2022-12-11T09:19:37;1.80;99.90
54518;DHT22;40423;53.176;6.002;2022-12-11T09:22:03;1.80;99.90
54518;DHT22;40423;53.176;6.002;2022-12-11T09:24:29;1.80;99.90
54518;DHT22;40423;53.176;6.002;2022-12-11T09:26:54;1.90;99.90
54518;DHT22;40423;53.176;6.002;2022-12-11T09:29:20;1.90;99.90
54518;DHT22;40423;53.176;6.002;2022-12-11T09:31:46;1.90;99.90
54518;DHT22;40423;53.176;6.002;2022-12-11T09:34:13;1.90;99.90
54518;DHT22;40423;53.176;6.002;2022-12-11T09:36:40;1.90;99.90
54518;DHT22;40423;53.176;6.002;2022-12-11T09:39:07;1.90;99.90
54518;DHT22;40423;53.176;6.002;2022-12-11T09:41:47;2.00;99.90
54518;DHT22;40423;53.176;6.002;2022-12-11T09:44:29;2.00;99.90
54518;DHT22;40423;53.176;6.002;2022-12-11T09:46:56;2.00;99.90
54518;DHT22;40423;53.176;6.002;2022-12-11T09:49:38;2.00;99.90
54518;DHT22;40423;53.176;6.002;2022-12-11T09:52:20;2.00;99.90
54518;DHT22;40423;53.176;6.002;2022-12-11T09:54:59;2.00;99.90
54518;DHT22;40423;53.176;6.002;2022-12-11T10:02:44;2.00;99.90
54518;DHT22;40423;53.176;6.002;2022-12-11T10:07:47;2.10;99.90
54518;DHT22;40423;53.176;6.002;2022-12-11T10:10:42;2.10;99.90
54518;DHT22;40423;53.176;6.002;2022-12-11T10:13:25;2.10;99.90
54518;DHT22;40423;53.176;6.002;2022-12-11T10:16:04;2.10;99.90
54518;DHT22;40423;53.176;6.002;2022-12-11T10:18:34;2.10;99.90
54518;DHT22;40423;53.176;6.002;2022-12-11T10:21:01;2.10;99.90
54518;DHT22;40423;53.176;6.002;2022-12-11T10:23:42;2.10;99.90
54518;DHT22;40423;53.176;6.002;2022-12-11T10:26:24;2.20;99.90
54518;DHT22;40423;53.176;6.002;2022-12-11T10:28:50;2.10;99.90
54518;DHT22;40423;53.176;6.002;2022-12-11T10:31:16;2.10;99.90
54518;DHT22;40423;53.176;6.002;2022-12-11T10:34:01;2.20;99.90
54518;DHT22;40423;53.176;6.002;2022-12-11T10:36:34;2.20;99.90
54518;DHT22;40423;53.176;6.002;2022-12-11T10:39:01;2.20;99.90
54518;DHT22;40423;53.176;6.002;2022-12-11T10:41:35;2.20;99.90
54518;DHT22;40423;53.176;6.002;2022-12-11T10:44:26;2.30;99.90
54518;DHT22;40423;53.176;6.002;2022-12-11T10:47:12;2.30;99.90
54518;DHT22;40423;53.176;6.002;2022-12-11T10:50:03;2.30;99.90
54518;DHT22;40423;53.176;6.002;2022-12-11T10:52:36;2.40;99.90
54518;DHT22;40423;53.176;6.002;2022-12-11T10:55:26;2.30;99.90
54518;DHT22;40423;53.176;6.002;2022-12-11T10:58:00;2.40;99.90
54518;DHT22;40423;53.176;6.002;2022-12-11T11:00:38;2.40;99.90
54518;DHT22;40423;53.176;6.002;2022-12-11T11:03:19;2.40;99.90
54518;DHT22;40423;53.176;6.002;2022-12-11T11:05:45;2.40;99.90
54518;DHT22;40423;53.176;6.002;2022-12-11T11:08:13;2.50;99.90
54518;DHT22;40423;53.176;6.002;2022-12-11T11:10:58;2.50;99.90
54518;DHT22;40423;53.176;6.002;2022-12-11T11:13:26;2.50;99.90
54518;DHT22;40423;53.176;6.002;2022-12-11T11:16:06;2.50;99.90
54518;DHT22;40423;53.176;6.002;2022-12-11T11:18:39;2.50;99.90
54518;DHT22;40423;53.176;6.002;2022-12-11T11:21:05;2.40;99.90
54518;DHT22;40423;53.176;6.002;2022-12-11T11:23:33;2.40;99.90
54518;DHT22;40423;53.176;6.002;2022-12-11T11:26:06;2.40;99.90
54518;DHT22;40423;53.176;6.002;2022-12-11T11:28:36;2.40;99.90
54518;DHT22;40423;53.176;6.002;2022-12-11T11:31:11;2.40;99.90
54518;DHT22;40423;53.176;6.002;2022-12-11T11:36:33;2.40;99.90
54518;DHT22;40423;53.176;6.002;2022-12-11T11:42:20;2.50;99.90
54518;DHT22;40423;53.176;6.002;2022-12-11T11:45:09;2.40;99.90
54518;DHT22;40423;53.176;6.002;2022-12-11T11:47:59;2.50;99.90
54518;DHT22;40423;53.176;6.002;2022-12-11T11:50:33;2.40;99.90
54518;DHT22;40423;53.176;6.002;2022-12-11T11:53:04;2.50;99.90
54518;DHT22;40423;53.176;6.002;2022-12-11T11:56:00;2.50;99.90
54518;DHT22;40423;53.176;6.002;2022-12-11T11:59:19;2.50;99.90
54518;DHT22;40423;53.176;6.002;2022-12-11T12:01:25;2.50;99.90
54518;DHT22;40423;53.176;6.002;2022-12-11T12:03:52;2.50;99.90
54518;DHT22;40423;53.176;6.002;2022-12-11T12:11:44;2.60;99.90
54518;DHT22;40423;53.176;6.002;2022-12-11T12:30:22;2.60;99.90
54518;DHT22;40423;53.176;6.002;2022-12-11T12:35:37;2.60;99.90
54518;DHT22;40423;53.176;6.002;2022-12-11T12:38:22;2.60;99.90
54518;DHT22;40423;53.176;6.002;2022-12-11T12:41:24;2.60;99.90
54518;DHT22;40423;53.176;6.002;2022-12-11T12:44:35;2.60;99.90
54518;DHT22;40423;53.176;6.002;2022-12-11T12:46:52;2.60;99.90
54518;DHT22;40423;53.176;6.002;2022-12-11T12:49:39;2.70;99.90
54518;DHT22;40423;53.176;6.002;2022-12-11T12:52:12;2.70;99.90
54518;DHT22;40423;53.176;6.002;2022-12-11T12:54:41;2.70;99.90
54518;DHT22;40423;53.176;6.002;2022-12-11T12:57:07;2.70;99.90
54518;DHT22;40423;53.176;6.002;2022-12-11T12:59:33;2.70;99.90
54518;DHT22;40423;53.176;6.002;2022-12-11T13:02:01;2.70;99.90
54518;DHT22;40423;53.176;6.002;2022-12-11T13:04:42;2.70;99.90
54518;DHT22;40423;53.176;6.002;2022-12-11T13:07:29;2.70;99.90
54518;DHT22;40423;53.176;6.002;2022-12-11T13:12:49;2.70;99.90
54518;DHT22;40423;53.176;6.002;2022-12-11T13:15:31;2.60;99.90
54518;DHT22;40423;53.176;6.002;2022-12-11T13:17:59;2.60;99.90
54518;DHT22;40423;53.176;6.002;2022-12-11T13:20:28;2.60;99.90
54518;DHT22;40423;53.176;6.002;2022-12-11T13:23:09;2.60;99.90
54518;DHT22;40423;53.176;6.002;2022-12-11T13:25:56;2.60;99.90
54518;DHT22;40423;53.176;6.002;2022-12-11T13:33:29;2.70;99.90
54518;DHT22;40423;53.176;6.002;2022-12-11T13:36:24;2.70;99.90
54518;DHT22;40423;53.176;6.002;2022-12-11T13:38:58;2.70;99.90
54518;DHT22;40423;53.176;6.002;2022-12-11T13:41:25;2.70;99.90
54518;DHT22;40423;53.176;6.002;2022-12-11T13:43:52;2.70;99.90
54518;DHT22;40423;53.176;6.002;2022-12-11T13:46:27;2.60;99.90
54518;DHT22;40423;53.176;6.002;2022-12-11T13:48:56;2.60;99.90
54518;DHT22;40423;53.176;6.002;2022-12-11T13:51:27;2.60;99.90
54518;DHT22;40423;53.176;6.002;2022-12-11T13:54:14;2.60;99.90
54518;DHT22;40423;53.176;6.002;2022-12-11T13:57:02;2.60;99.90
54518;DHT22;40423;53.176;6.002;2022-12-11T13:59:34;2.60;99.90
54518;DHT22;40423;53.176;6.002;2022-12-11T14:02:28;2.60;99.90
54518;DHT22;40423;53.176;6.002;2022-12-11T14:05:02;2.60;99.90
54518;DHT22;40423;53.176;6.002;2022-12-11T14:07:41;2.50;99.90
54518;DHT22;40423;53.176;6.002;2022-12-11T14:13:03;2.50;99.90
54518;DHT22;40423;53.176;6.002;2022-12-11T14:15:29;2.50;99.90
54518;DHT22;40423;53.176;6.002;2022-12-11T14:17:57;2.50;99.90
54518;DHT22;40423;53.176;6.002;2022-12-11T14:20:27;2.50;99.90
54518;DHT22;40423;53.176;6.002;2022-12-11T14:23:19;2.50;99.90
54518;DHT22;40423;53.176;6.002;2022-12-11T14:26:30;2.50;99.90
54518;DHT22;40423;53.176;6.002;2022-12-11T14:28:56;2.50;99.90
54518;DHT22;40423;53.176;6.002;2022-12-11T14:31:41;2.40;99.90
54518;DHT22;40423;53.176;6.002;2022-12-11T14:34:14;2.40;99.90
54518;DHT22;40423;53.176;6.002;2022-12-11T14:36:43;2.40;99.90
54518;DHT22;40423;53.176;6.002;2022-12-11T14:39:29;2.40;99.90
54518;DHT22;40423;53.176;6.002;2022-12-11T14:42:10;2.30;99.90
54518;DHT22;40423;53.176;6.002;2022-12-11T14:44:48;2.30;99.90
54518;DHT22;40423;53.176;6.002;2022-12-11T14:47:20;2.30;99.90
54518;DHT22;40423;53.176;6.002;2022-12-11T14:50:20;2.30;99.90
54518;DHT22;40423;53.176;6.002;2022-12-11T14:52:53;2.20;99.90
54518;DHT22;40423;53.176;6.002;2022-12-11T14:55:30;2.20;99.90
54518;DHT22;40423;53.176;6.002;2022-12-11T14:58:03;2.10;99.90
54518;DHT22;40423;53.176;6.002;2022-12-11T15:00:34;2.10;99.90
54518;DHT22;40423;53.176;6.002;2022-12-11T15:05:51;2.10;99.90
54518;DHT22;40423;53.176;6.002;2022-12-11T15:08:26;2.10;99.90
54518;DHT22;40423;53.176;6.002;2022-12-11T15:11:09;2.10;99.90
54518;DHT22;40423;53.176;6.002;2022-12-11T15:13:59;2.10;99.90
54518;DHT22;40423;53.176;6.002;2022-12-11T15:16:26;2.10;99.90
54518;DHT22;40423;53.176;6.002;2022-12-11T15:18:54;2.10;99.90
54518;DHT22;40423;53.176;6.002;2022-12-11T15:21:36;2.10;99.90
54518;DHT22;40423;53.176;6.002;2022-12-11T15:24:05;2.10;99.90
54518;DHT22;40423;53.176;6.002;2022-12-11T15:26:45;2.10;99.90
54518;DHT22;40423;53.176;6.002;2022-12-11T15:29:41;2.10;99.90
54518;DHT22;40423;53.176;6.002;2022-12-11T15:34:56;2.10;99.90
54518;DHT22;40423;53.176;6.002;2022-12-11T15:39:57;2.00;99.90
54518;DHT22;40423;53.176;6.002;2022-12-11T15:42:36;2.00;99.90
54518;DHT22;40423;53.176;6.002;2022-12-11T15:45:10;2.00;99.90
54518;DHT22;40423;53.176;6.002;2022-12-11T15:47:41;2.00;99.90
54518;DHT22;40423;53.176;6.002;2022-12-11T15:50:24;2.00;99.90
54518;DHT22;40423;53.176;6.002;2022-12-11T15:52:51;2.00;99.90
54518;DHT22;40423;53.176;6.002;2022-12-11T15:55:18;1.90;99.90
54518;DHT22;40423;53.176;6.002;2022-12-11T15:57:46;1.90;99.90
54518;DHT22;40423;53.176;6.002;2022-12-11T16:00:17;1.90;99.90
54518;DHT22;40423;53.176;6.002;2022-12-11T16:02:44;1.90;99.90
54518;DHT22;40423;53.176;6.002;2022-12-11T16:05:10;1.90;99.90
54518;DHT22;40423;53.176;6.002;2022-12-11T16:07:36;1.90;99.90
54518;DHT22;40423;53.176;6.002;2022-12-11T16:10:02;1.80;99.90
54518;DHT22;40423;53.176;6.002;2022-12-11T16:12:28;1.90;99.90
54518;DHT22;40423;53.176;6.002;2022-12-11T16:14:54;1.90;99.90
54518;DHT22;40423;53.176;6.002;2022-12-11T16:17:19;1.80;99.90
54518;DHT22;40423;53.176;6.002;2022-12-11T16:19:45;1.90;99.90
54518;DHT22;40423;53.176;6.002;2022-12-11T16:22:12;1.90;99.90
54518;DHT22;40423;53.176;6.002;2022-12-11T16:24:39;1.90;99.90
54518;DHT22;40423;53.176;6.002;2022-12-11T16:27:05;1.90;99.90
54518;DHT22;40423;53.176;6.002;2022-12-11T16:29:40;1.90;99.90
54518;DHT22;40423;53.176;6.002;2022-12-11T16:32:06;1.90;99.90
54518;DHT22;40423;53.176;6.002;2022-12-11T16:34:33;1.90;99.90
54518;DHT22;40423;53.176;6.002;2022-12-11T16:37:00;1.90;99.90
54518;DHT22;40423;53.176;6.002;2022-12-11T16:39:26;1.80;99.90
54518;DHT22;40423;53.176;6.002;2022-12-11T16:41:52;1.80;99.90
54518;DHT22;40423;53.176;6.002;2022-12-11T16:44:19;1.80;99.90
54518;DHT22;40423;53.176;6.002;2022-12-11T16:46:46;1.80;99.90
54518;DHT22;40423;53.176;6.002;2022-12-11T16:49:12;1.80;99.90
54518;DHT22;40423;53.176;6.002;2022-12-11T16:51:37;1.90;99.90
54518;DHT22;40423;53.176;6.002;2022-12-11T16:54:03;1.80;99.90
54518;DHT22;40423;53.176;6.002;2022-12-11T16:56:29;1.80;99.90
54518;DHT22;40423;53.176;6.002;2022-12-11T16:58:55;1.80;99.90
54518;DHT22;40423;53.176;6.002;2022-12-11T17:01:21;1.80;99.90
54518;DHT22;40423;53.176;6.002;2022-12-11T17:03:46;1.80;99.90
54518;DHT22;40423;53.176;6.002;2022-12-11T17:06:14;1.80;99.90
54518;DHT22;40423;53.176;6.002;2022-12-11T17:08:40;1.80;99.90
54518;DHT22;40423;53.176;6.002;2022-12-11T17:11:13;1.80;99.90
54518;DHT22;40423;53.176;6.002;2022-12-11T17:13:40;1.80;99.90
54518;DHT22;40423;53.176;6.002;2022-12-11T17:16:07;1.80;99.90
54518;DHT22;40423;53.176;6.002;2022-12-11T17:18:34;1.80;99.90